Time;durP1;ratioP1;P1;durP2;ratioP2;P2;SDS_P1;SDS_P2;PMS_P1;PMS_P2;Temp;Humidity;BMP_temperature;BMP_pressure;BME280_temperature;BME280_humidity;BME280_pressure;Samples;Min_cycle;Max_cycle;Signal;HPM_P1;HPM_P2
2022/06/15 00:00:35;;;;;;;5.45;3.65;;;14.90;99.90;;;;;;5085033;28;20031;-73
2022/06/15 00:03:01;;;;;;;8.25;4.13;;;14.80;99.90;;;;;;5093956;28;20101;-73
2022/06/15 00:05:27;;;;;;;8.73;3.80;;;14.80;99.90;;;;;;5101661;28;20040;-73
2022/06/15 00:07:53;;;;;;;9.20;3.80;;;14.80;99.90;;;;;;5106891;28;20044;-73
2022/06/15 00:10:20;;;;;;;6.20;3.78;;;14.70;99.90;;;;;;5101972;28;20033;-73
2022/06/15 00:12:46;;;;;;;11.43;3.83;;;14.70;99.90;;;;;;5094145;28;20044;-73
2022/06/15 00:15:13;;;;;;;7.43;3.90;;;14.60;99.90;;;;;;5101683;28;20350;-73
2022/06/15 00:17:39;;;;;;;7.25;3.92;;;14.60;99.90;;;;;;5107342;28;20055;-73
2022/06/15 00:20:05;;;;;;;6.90;3.72;;;14.50;99.90;;;;;;5101955;28;20044;-73
2022/06/15 00:22:31;;;;;;;7.10;3.88;;;14.40;99.90;;;;;;5086021;28;20169;-73
2022/06/15 00:24:57;;;;;;;6.63;3.70;;;14.30;99.90;;;;;;5079105;28;20378;-74
2022/06/15 00:27:22;;;;;;;6.28;3.80;;;14.20;99.90;;;;;;5099658;28;20497;-73
2022/06/15 00:29:48;;;;;;;7.57;3.95;;;14.20;99.90;;;;;;5100452;28;20096;-73
2022/06/15 00:32:14;;;;;;;10.05;4.43;;;14.10;99.90;;;;;;5086210;28;20197;-73
2022/06/15 00:34:39;;;;;;;8.93;4.57;;;14.10;99.90;;;;;;5107780;28;20047;-73
2022/06/15 00:37:06;;;;;;;7.05;4.55;;;14.20;99.90;;;;;;5105929;28;20051;-76
2022/06/15 00:39:33;;;;;;;9.15;4.07;;;14.10;99.90;;;;;;5081524;28;20048;-72
2022/06/15 00:41:59;;;;;;;8.02;4.80;;;14.20;99.90;;;;;;5103796;28;20086;-72
2022/06/15 00:44:25;;;;;;;8.00;4.95;;;14.10;99.90;;;;;;5106055;28;20110;-73
2022/06/15 00:47:11;;;;;;;7.20;4.45;;;14.20;99.90;;;;;;5085189;28;20052;-73
2022/06/15 00:49:47;;;;;;;8.13;4.75;;;14.20;99.90;;;;;;5085573;28;20047;-73
2022/06/15 00:52:32;;;;;;;10.07;4.22;;;14.20;99.90;;;;;;5082889;28;20397;-73
2022/06/15 00:54:58;;;;;;;9.48;4.60;;;14.20;99.90;;;;;;5075265;28;20062;-73
2022/06/15 00:57:26;;;;;;;8.70;4.80;;;14.20;99.90;;;;;;5098871;28;20052;-73
2022/06/15 00:59:58;;;;;;;6.90;4.45;;;14.00;99.90;;;;;;5078568;28;20071;-74
2022/06/15 01:02:24;;;;;;;7.35;4.70;;;14.10;99.90;;;;;;5096263;28;20043;-74
2022/06/15 01:05:01;;;;;;;7.57;4.87;;;14.10;99.90;;;;;;5104686;28;20042;-73
2022/06/15 01:07:27;;;;;;;7.60;4.00;;;14.00;99.90;;;;;;5106056;28;20084;-73
2022/06/15 01:10:21;;;;;;;8.30;4.32;;;13.90;99.90;;;;;;5078696;28;20052;-74
2022/06/15 01:12:53;;;;;;;7.32;4.55;;;13.90;99.90;;;;;;5077709;28;20494;-74
2022/06/15 01:15:30;;;;;;;7.32;4.70;;;13.80;99.90;;;;;;5098447;28;20040;-74
2022/06/15 01:18:16;;;;;;;7.18;4.30;;;13.70;99.90;;;;;;5081175;28;20059;-74
2022/06/15 01:21:03;;;;;;;7.05;4.20;;;13.60;99.90;;;;;;5089317;28;20046;-74
2022/06/15 01:23:48;;;;;;;;;;;13.50;99.90;;;;;;5080477;28;20070;-73
2022/06/15 01:26:49;;;;;;;6.65;4.50;;;13.40;99.90;;;;;;5106407;28;19977;-74
2022/06/15 01:29:41;;;;;;;9.50;5.13;;;13.30;99.90;;;;;;5102877;28;20062;-73
2022/06/15 01:32:20;;;;;;;9.45;4.53;;;13.30;99.90;;;;;;5089847;28;20048;-73
2022/06/15 01:35:13;;;;;;;7.40;4.90;;;13.30;99.90;;;;;;5080729;28;20047;-74
2022/06/15 01:37:42;;;;;;;8.57;4.55;;;13.30;99.90;;;;;;5105399;28;20175;-73
2022/06/15 01:40:16;;;;;;;8.85;5.07;;;13.20;99.90;;;;;;5085042;28;20048;-73
2022/06/15 01:42:49;;;;;;;9.70;6.10;;;13.20;99.90;;;;;;5103632;28;20040;-74
2022/06/15 01:45:20;;;;;;;9.50;5.80;;;13.20;99.90;;;;;;5083298;28;20573;-73
2022/06/15 01:47:48;;;;;;;7.93;5.18;;;13.20;99.90;;;;;;5088050;28;20047;-74
2022/06/15 01:50:25;;;;;;;9.68;5.93;;;13.20;99.90;;;;;;5071818;28;20079;-73
2022/06/15 01:52:55;;;;;;;8.07;6.10;;;13.30;99.90;;;;;;5097298;28;20050;-74
2022/06/15 01:55:22;;;;;;;8.35;5.40;;;13.20;99.90;;;;;;5076780;28;20051;-74
2022/06/15 01:57:52;;;;;;;10.73;6.15;;;13.20;99.90;;;;;;5106348;28;20459;-73
2022/06/15 02:00:18;;;;;;;11.45;6.20;;;13.30;99.90;;;;;;5101562;28;20043;-73
2022/06/15 02:03:06;;;;;;;8.10;6.30;;;13.20;99.90;;;;;;5103878;28;20043;-74
2022/06/15 02:05:34;;;;;;;;;;;13.30;99.90;;;;;;5107803;28;20047;-74
2022/06/15 02:08:03;;;;;;;11.13;6.78;;;13.20;99.90;;;;;;5096141;28;20286;-73
2022/06/15 02:10:58;;;;;;;8.27;6.07;;;13.10;99.90;;;;;;5078538;28;20051;-74
2022/06/15 02:13:33;;;;;;;10.80;6.30;;;13.20;99.90;;;;;;5105163;28;20048;-73
2022/06/15 02:16:05;;;;;;;9.40;5.97;;;13.20;99.90;;;;;;5091338;28;20046;-74
2022/06/15 02:18:34;;;;;;;8.90;6.65;;;13.20;99.90;;;;;;5080194;28;20054;-74
2022/06/15 02:21:08;;;;;;;11.30;6.32;;;13.20;99.90;;;;;;5103817;28;20050;-74
2022/06/15 02:23:38;;;;;;;9.48;5.95;;;13.20;99.90;;;;;;5098030;28;20047;-74
2022/06/15 02:26:04;;;;;;;9.57;5.88;;;13.20;99.90;;;;;;5105035;28;20116;-73
2022/06/15 02:28:35;;;;;;;10.10;6.40;;;13.10;99.90;;;;;;5098543;28;20075;-73
2022/06/15 02:31:01;;;;;;;9.45;6.32;;;13.10;99.90;;;;;;5109308;28;20082;-73
2022/06/15 02:33:30;;;;;;;7.93;6.47;;;13.10;99.90;;;;;;5108880;28;20885;-74
2022/06/15 02:35:57;;;;;;;8.32;6.18;;;13.00;99.90;;;;;;5107592;28;20135;-73
2022/06/15 02:38:24;;;;;;;10.35;6.55;;;13.10;99.90;;;;;;5090418;28;20584;-74
2022/06/15 02:40:49;;;;;;;10.40;6.70;;;13.00;99.90;;;;;;5090019;28;20048;-73
2022/06/15 02:43:19;;;;;;;10.85;6.40;;;13.00;99.90;;;;;;5104417;28;20309;-74
2022/06/15 02:45:47;;;;;;;11.02;6.35;;;13.00;99.90;;;;;;5090143;28;20153;-74
2022/06/15 02:48:15;;;;;;;10.82;6.90;;;13.00;99.90;;;;;;5101110;28;20408;-74
2022/06/15 02:50:46;;;;;;;9.50;6.82;;;12.90;99.90;;;;;;5102740;28;20036;-73
2022/06/15 02:53:16;;;;;;;11.20;6.28;;;12.90;99.90;;;;;;5093863;28;20051;-73
2022/06/15 02:55:43;;;;;;;11.10;6.70;;;12.90;99.90;;;;;;5092824;28;20043;-73
2022/06/15 02:58:16;;;;;;;12.40;6.75;;;12.90;99.90;;;;;;5103572;28;20036;-74
2022/06/15 03:00:42;;;;;;;9.70;6.97;;;12.80;99.90;;;;;;5080775;28;20475;-74
2022/06/15 03:03:08;;;;;;;13.07;7.22;;;12.70;99.90;;;;;;5108469;28;20039;-74
2022/06/15 03:05:34;;;;;;;12.68;7.70;;;12.70;99.90;;;;;;5110516;28;20119;-74
2022/06/15 03:07:59;;;;;;;12.00;7.95;;;12.60;99.90;;;;;;5110176;28;20048;-74
2022/06/15 03:10:25;;;;;;;9.52;7.35;;;12.70;99.90;;;;;;5105920;28;20066;-74
2022/06/15 03:12:51;;;;;;;12.00;8.50;;;12.70;99.90;;;;;;5080824;28;20196;-74
2022/06/15 03:15:17;;;;;;;12.93;8.32;;;12.70;99.90;;;;;;5105502;28;20066;-74
2022/06/15 03:17:42;;;;;;;13.00;8.07;;;12.70;99.90;;;;;;5107811;28;20035;-74
2022/06/15 03:20:11;;;;;;;14.85;8.18;;;12.60;99.90;;;;;;5088964;28;20073;-73
2022/06/15 03:22:37;;;;;;;11.57;8.68;;;12.70;99.90;;;;;;5100987;28;20042;-73
2022/06/15 03:25:04;;;;;;;11.13;8.25;;;12.60;99.90;;;;;;5108378;28;20063;-74
2022/06/15 03:27:29;;;;;;;10.98;8.25;;;12.60;99.90;;;;;;5076410;28;20059;-73
2022/06/15 03:29:55;;;;;;;10.43;8.30;;;12.70;99.90;;;;;;5072892;28;20058;-74
2022/06/15 03:32:21;;;;;;;12.43;7.97;;;12.70;99.90;;;;;;5090468;28;20055;-74
2022/06/15 03:34:47;;;;;;;11.68;8.13;;;12.70;99.90;;;;;;5108508;28;20100;-74
2022/06/15 03:37:13;;;;;;;9.90;8.20;;;12.70;99.90;;;;;;5110488;28;20043;-76
2022/06/15 03:39:40;;;;;;;11.63;8.30;;;12.70;99.90;;;;;;5107108;28;20602;-75
2022/06/15 03:42:12;;;;;;;10.30;8.25;;;12.70;99.90;;;;;;5106536;28;20054;-74
2022/06/15 03:44:40;;;;;;;11.30;8.10;;;12.70;99.90;;;;;;5076835;28;20071;-74
2022/06/15 03:47:13;;;;;;;9.60;8.57;;;12.70;99.90;;;;;;5106161;28;20674;-74
2022/06/15 03:49:39;;;;;;;12.57;8.65;;;12.70;99.90;;;;;;5083481;28;20048;-74
2022/06/15 03:52:05;;;;;;;10.52;8.70;;;12.70;99.90;;;;;;5082099;28;20050;-74
2022/06/15 03:54:31;;;;;;;10.60;8.93;;;12.70;99.90;;;;;;5108556;28;20072;-74
2022/06/15 03:56:56;;;;;;;10.35;8.45;;;12.70;99.90;;;;;;5070994;28;20507;-74
2022/06/15 03:59:22;;;;;;;9.98;8.90;;;12.80;99.90;;;;;;5105780;28;20040;-75
2022/06/15 04:01:48;;;;;;;12.55;9.18;;;12.80;99.90;;;;;;5106138;28;20050;-75
2022/06/15 04:04:14;;;;;;;10.90;8.60;;;12.80;99.90;;;;;;5088151;28;20071;-75
2022/06/15 04:06:41;;;;;;;10.20;8.57;;;12.80;99.90;;;;;;5106981;28;20074;-75
2022/06/15 04:09:06;;;;;;;11.68;8.90;;;12.90;99.90;;;;;;5088173;28;20529;-75
2022/06/15 04:14:16;;;;;;;12.73;8.65;;;12.90;99.90;;;;;;5083531;28;20087;-76
2022/06/15 04:16:42;;;;;;;11.70;9.13;;;12.90;99.90;;;;;;5087100;28;20116;-76
2022/06/15 04:19:08;;;;;;;12.82;9.52;;;13.00;99.90;;;;;;5086887;28;20087;-76
2022/06/15 04:21:34;;;;;;;13.80;9.93;;;13.10;99.90;;;;;;5089184;28;20042;-76
2022/06/15 04:24:00;;;;;;;12.98;9.27;;;13.00;99.90;;;;;;5099508;28;20134;-75
2022/06/15 04:26:26;;;;;;;12.73;9.68;;;13.00;99.90;;;;;;5103031;28;20479;-76
2022/06/15 04:28:52;;;;;;;12.23;9.27;;;13.10;99.90;;;;;;5092207;28;20047;-76
2022/06/15 04:31:17;;;;;;;11.60;9.43;;;13.10;99.90;;;;;;5097416;28;20710;-75
2022/06/15 04:33:43;;;;;;;12.27;9.25;;;13.20;99.90;;;;;;5080778;28;20050;-75
2022/06/15 04:36:13;;;;;;;12.00;9.93;;;13.20;99.90;;;;;;5105474;28;20038;-75
2022/06/15 04:38:38;;;;;;;14.15;9.77;;;13.20;99.90;;;;;;5079222;28;20052;-76
2022/06/15 04:41:04;;;;;;;15.35;10.20;;;13.30;99.90;;;;;;5092965;28;20048;-75
2022/06/15 04:43:30;;;;;;;12.55;9.75;;;13.30;99.90;;;;;;5074953;28;20035;-76
2022/06/15 04:45:56;;;;;;;13.23;10.13;;;13.40;99.90;;;;;;5105828;28;20047;-75
2022/06/15 04:48:21;;;;;;;12.05;9.88;;;13.40;99.90;;;;;;5089837;28;20044;-74
2022/06/15 04:50:47;;;;;;;13.00;10.25;;;13.40;99.90;;;;;;5108120;28;20503;-75
2022/06/15 04:53:13;;;;;;;12.15;10.15;;;13.60;99.90;;;;;;5089590;28;20044;-75
2022/06/15 04:55:38;;;;;;;12.43;10.05;;;13.60;99.90;;;;;;5098246;28;20051;-75
2022/06/15 04:58:04;;;;;;;12.82;9.63;;;13.70;99.90;;;;;;5096273;28;20063;-75
2022/06/15 05:00:39;;;;;;;14.25;10.98;;;13.70;99.90;;;;;;5074903;28;20157;-76
2022/06/15 05:03:05;;;;;;;13.57;9.65;;;13.80;99.90;;;;;;5094334;28;20090;-75
2022/06/15 05:05:30;;;;;;;12.63;10.57;;;13.90;99.90;;;;;;5108815;28;20079;-75
2022/06/15 05:07:56;;;;;;;11.60;9.80;;;14.00;99.90;;;;;;5107613;28;20094;-75
2022/06/15 05:10:23;;;;;;;13.85;10.20;;;14.00;99.90;;;;;;5108152;28;20031;-75
2022/06/15 05:12:49;;;;;;;13.45;10.40;;;14.00;99.90;;;;;;5098520;28;20487;-75
2022/06/15 05:15:16;;;;;;;11.45;9.82;;;14.00;99.90;;;;;;5088142;28;20052;-75
2022/06/15 05:17:44;;;;;;;11.82;9.85;;;14.10;99.90;;;;;;5096556;28;20032;-76
2022/06/15 05:20:11;;;;;;;12.40;9.70;;;14.10;99.90;;;;;;5107952;28;20047;-76
2022/06/15 05:22:37;;;;;;;13.38;10.73;;;14.20;99.90;;;;;;5089669;28;20050;-76
2022/06/15 05:25:08;;;;;;;12.52;9.52;;;14.30;99.90;;;;;;5107439;28;20040;-75
2022/06/15 05:27:37;;;;;;;16.80;9.57;;;14.30;99.90;;;;;;5103104;28;20039;-76
2022/06/15 05:30:07;;;;;;;12.77;10.13;;;14.40;99.90;;;;;;5106639;28;20047;-75
2022/06/15 05:32:33;;;;;;;13.95;9.95;;;14.50;99.90;;;;;;5105088;28;20563;-76
2022/06/15 05:35:00;;;;;;;13.25;9.40;;;14.50;99.90;;;;;;5105901;28;20040;-76
2022/06/15 05:37:28;;;;;;;14.18;9.73;;;14.60;99.90;;;;;;5086065;28;20040;-75
2022/06/15 05:39:53;;;;;;;11.93;9.55;;;14.60;99.90;;;;;;5107437;28;20042;-76
2022/06/15 05:42:19;;;;;;;13.25;9.70;;;14.60;99.90;;;;;;5099165;28;20043;-75
2022/06/15 05:47:13;;;;;;;14.32;10.00;;;14.80;99.90;;;;;;5070121;28;20040;-75
2022/06/15 05:49:39;;;;;;;13.48;9.55;;;14.80;99.90;;;;;;5075516;28;20103;-75
2022/06/15 05:52:05;;;;;;;11.75;9.25;;;14.90;99.90;;;;;;5076556;28;20035;-74
2022/06/15 05:54:31;;;;;;;13.13;9.60;;;15.00;99.90;;;;;;5094278;28;20043;-74
2022/06/15 05:56:57;;;;;;;12.23;8.75;;;15.10;99.90;;;;;;5091364;28;20067;-77
2022/06/15 05:59:22;;;;;;;12.48;8.80;;;15.10;99.90;;;;;;5078946;28;20044;-77
2022/06/15 06:01:48;;;;;;;10.75;8.60;;;15.20;99.90;;;;;;5087861;28;20399;-78
2022/06/15 06:04:16;;;;;;;11.23;8.48;;;15.30;99.90;;;;;;5095836;28;20035;-76
2022/06/15 06:06:42;;;;;;;14.40;8.23;;;15.40;99.90;;;;;;5096450;28;20092;-77
2022/06/15 06:09:09;;;;;;;11.68;7.93;;;15.40;99.90;;;;;;5076646;28;20755;-77
2022/06/15 06:11:36;;;;;;;11.15;7.82;;;15.60;99.90;;;;;;5093875;28;20055;-78
2022/06/15 06:14:02;;;;;;;10.65;7.78;;;15.60;99.90;;;;;;5101908;28;20040;-78
2022/06/15 06:16:27;;;;;;;11.85;8.05;;;15.70;99.90;;;;;;5080966;28;20082;-78
2022/06/15 06:18:53;;;;;;;12.82;8.55;;;15.80;99.90;;;;;;5102810;28;20093;-77
2022/06/15 06:21:19;;;;;;;11.90;8.07;;;15.90;99.90;;;;;;5078169;28;20535;-78
2022/06/15 06:23:45;;;;;;;10.40;7.20;;;16.00;99.90;;;;;;5092904;28;20038;-78
2022/06/15 06:26:35;;;;;;;12.23;7.70;;;16.10;99.90;;;;;;5077943;28;20752;-77
2022/06/15 06:29:00;;;;;;;14.07;8.23;;;16.20;99.90;;;;;;5097478;28;20043;-78
2022/06/15 06:31:27;;;;;;;11.68;7.35;;;16.20;99.90;;;;;;5093042;28;20054;-79
2022/06/15 06:33:53;;;;;;;12.00;7.88;;;16.30;99.90;;;;;;5101714;28;20075;-78
2022/06/15 06:36:32;;;;;;;14.50;8.20;;;16.40;99.90;;;;;;5097831;28;20079;-79
2022/06/15 06:38:59;;;;;;;13.00;7.45;;;16.50;99.90;;;;;;5088344;28;20123;-78
2022/06/15 06:41:27;;;;;;;9.95;7.57;;;16.50;99.90;;;;;;5098060;28;20035;-78
2022/06/15 06:43:53;;;;;;;9.88;7.07;;;16.60;99.90;;;;;;5100683;28;20040;-78
2022/06/15 06:46:19;;;;;;;11.57;7.05;;;16.60;99.90;;;;;;5076746;28;20501;-76
2022/06/15 06:48:45;;;;;;;10.20;6.93;;;16.80;99.90;;;;;;5075000;28;20368;-76
2022/06/15 06:51:11;;;;;;;11.15;7.38;;;16.80;99.90;;;;;;5074973;28;20066;-76
2022/06/15 06:53:37;;;;;;;10.30;6.68;;;16.90;99.90;;;;;;5098141;28;20044;-76
2022/06/15 06:56:04;;;;;;;10.93;6.78;;;17.00;99.90;;;;;;5094686;28;20089;-76
2022/06/15 06:58:30;;;;;;;11.00;6.80;;;17.10;99.90;;;;;;5094172;28;20501;-75
2022/06/15 07:00:56;;;;;;;12.38;6.90;;;17.20;99.90;;;;;;5100899;28;20040;-76
2022/06/15 07:03:22;;;;;;;9.55;7.18;;;17.20;99.90;;;;;;5091134;28;20040;-76
2022/06/15 07:05:51;;;;;;;12.63;7.40;;;17.30;99.90;;;;;;5100358;28;20567;-76
2022/06/15 07:08:17;;;;;;;10.77;6.10;;;17.40;99.90;;;;;;5081518;28;20062;-76
2022/06/15 07:10:43;;;;;;;10.35;6.50;;;17.50;99.90;;;;;;5094128;28;20043;-76
2022/06/15 07:13:09;;;;;;;11.65;6.35;;;17.60;99.90;;;;;;5107368;28;20043;-76
2022/06/15 07:15:36;;;;;;;8.70;6.50;;;17.70;99.90;;;;;;5082339;28;20047;-76
2022/06/15 07:18:03;;;;;;;8.95;6.25;;;17.80;99.90;;;;;;5099498;28;20055;-74
2022/06/15 07:20:30;;;;;;;16.17;6.43;;;17.90;99.90;;;;;;5081491;28;20105;-74
2022/06/15 07:22:57;;;;;;;10.57;6.40;;;17.90;99.90;;;;;;5085429;28;20079;-74
2022/06/15 07:25:23;;;;;;;11.63;6.10;;;18.00;99.90;;;;;;5086670;28;20040;-78
2022/06/15 07:27:49;;;;;;;8.07;6.15;;;18.10;99.90;;;;;;5096035;28;20102;-75
2022/06/15 07:30:19;;;;;;;12.70;6.63;;;18.10;99.90;;;;;;5085741;28;20592;-74
2022/06/15 07:32:45;;;;;;;9.68;6.05;;;18.20;99.90;;;;;;5103340;28;20051;-74
2022/06/15 07:35:17;;;;;;;9.27;6.25;;;18.20;99.90;;;;;;5077745;28;20044;-75
2022/06/15 07:37:43;;;;;;;8.43;5.90;;;18.30;99.90;;;;;;5091133;28;20050;-75
2022/06/15 07:40:10;;;;;;;9.82;5.82;;;18.40;99.90;;;;;;5094343;28;20059;-76
2022/06/15 07:42:35;;;;;;;10.43;5.38;;;18.40;99.90;;;;;;5105080;28;20043;-76
2022/06/15 07:45:01;;;;;;;12.20;5.72;;;18.50;99.90;;;;;;5093284;28;20038;-75
2022/06/15 07:50:11;;;;;;;9.27;4.72;;;18.70;99.90;;;;;;5080179;28;20073;-76
2022/06/15 07:52:40;;;;;;;8.88;4.53;;;18.80;99.90;;;;;;5104780;28;20047;-75
2022/06/15 07:55:08;;;;;;;7.13;3.97;;;18.90;99.90;;;;;;5078649;28;20040;-76
2022/06/15 07:57:33;;;;;;;8.65;3.67;;;18.90;99.90;;;;;;5076759;28;20130;-75
2022/06/15 07:59:59;;;;;;;7.65;3.22;;;19.00;99.90;;;;;;5090363;28;20147;-73
2022/06/15 08:02:25;;;;;;;7.93;3.13;;;19.10;99.90;;;;;;5086647;28;20172;-73
2022/06/15 08:04:50;;;;;;;10.85;3.47;;;19.20;99.90;;;;;;5110700;28;20036;-75
2022/06/15 08:07:17;;;;;;;5.55;3.20;;;19.30;99.90;;;;;;5084708;28;20051;-76
2022/06/15 08:09:43;;;;;;;7.90;3.60;;;19.40;99.90;;;;;;5076923;28;20036;-74
2022/06/15 08:12:19;;;;;;;5.03;2.33;;;19.50;99.90;;;;;;5103691;28;20032;-75
2022/06/15 08:14:53;;;;;;;7.00;2.72;;;19.60;99.90;;;;;;5079229;28;20078;-75
2022/06/15 08:17:34;;;;;;;6.82;2.85;;;19.70;99.90;;;;;;5097764;28;20044;-76
2022/06/15 08:20:06;;;;;;;4.80;1.92;;;19.80;99.90;;;;;;5095730;28;20051;-75
2022/06/15 08:22:34;;;;;;;5.05;2.00;;;19.80;99.30;;;;;;5076410;28;20092;-75
2022/06/15 08:25:02;;;;;;;8.10;2.38;;;19.90;99.90;;;;;;5105055;28;20156;-75
2022/06/15 08:27:28;;;;;;;6.90;2.42;;;19.90;99.90;;;;;;5094166;28;20061;-76
2022/06/15 08:29:54;;;;;;;5.10;2.15;;;20.00;99.60;;;;;;5090688;28;20054;-76
2022/06/15 08:32:20;;;;;;;5.18;1.70;;;20.00;98.90;;;;;;5081255;28;20043;-75
2022/06/15 08:34:46;;;;;;;4.22;1.60;;;20.00;97.40;;;;;;5082833;28;20083;-76
2022/06/15 08:37:14;;;;;;;4.60;1.80;;;20.00;94.20;;;;;;5082769;28;20047;-76
2022/06/15 08:39:41;;;;;;;5.78;2.10;;;20.00;94.70;;;;;;5102781;28;20048;-74
2022/06/15 08:42:18;;;;;;;5.23;2.17;;;20.00;97.80;;;;;;5072528;28;20040;-75
2022/06/15 08:45:08;;;;;;;8.48;2.15;;;20.10;95.00;;;;;;5079109;28;20063;-76
2022/06/15 08:48:00;;;;;;;4.03;2.33;;;20.30;93.80;;;;;;5076488;28;20127;-75
2022/06/15 08:50:57;;;;;;;5.18;2.05;;;20.30;93.10;;;;;;5082428;28;20052;-75
2022/06/15 08:53:57;;;;;;;7.47;2.17;;;20.30;95.90;;;;;;5071358;28;20040;-78
2022/06/15 08:56:39;;;;;;;5.40;2.20;;;20.30;94.80;;;;;;5103430;28;20051;-74
2022/06/15 08:59:33;;;;;;;9.10;2.55;;;20.40;95.50;;;;;;5081303;28;21805;-75
2022/06/15 09:02:39;;;;;;;5.28;2.40;;;20.50;96.00;;;;;;5107282;28;20043;-74
2022/06/15 09:05:27;;;;;;;3.88;1.73;;;20.60;91.40;;;;;;5067231;28;20525;-74
2022/06/15 09:08:00;;;;;;;3.88;1.95;;;20.60;90.70;;;;;;5098035;28;20051;-74
2022/06/15 09:11:07;;;;;;;2.55;1.85;;;20.60;90.40;;;;;;5082691;28;20051;-75
2022/06/15 09:13:56;;;;;;;6.03;2.08;;;20.60;90.40;;;;;;4993418;28;20049;-78
2022/06/15 09:16:49;;;;;;;5.05;2.20;;;20.70;90.30;;;;;;4998912;28;20039;-82
2022/06/15 09:19:25;;;;;;;5.45;2.10;;;20.70;86.20;;;;;;5074514;28;20059;-81
2022/06/15 09:22:03;;;;;;;6.15;1.95;;;20.80;91.20;;;;;;5082591;28;20468;-80
2022/06/15 09:24:34;;;;;;;4.15;1.80;;;20.90;92.60;;;;;;5070694;28;20051;-80
2022/06/15 09:27:06;;;;;;;4.20;1.95;;;21.00;86.40;;;;;;5073553;28;20437;-79
2022/06/15 09:29:37;;;;;;;5.25;1.83;;;21.00;85.10;;;;;;5094287;28;20113;-78
2022/06/15 09:32:14;;;;;;;3.88;1.60;;;21.00;81.00;;;;;;5092278;28;20625;-81
2022/06/15 09:34:46;;;;;;;5.25;1.85;;;21.10;90.50;;;;;;5083414;28;20044;-89
2022/06/15 09:37:16;;;;;;;4.25;2.13;;;21.20;91.40;;;;;;5083795;28;20056;-75
2022/06/15 09:39:42;;;;;;;2.95;1.50;;;21.40;88.00;;;;;;5102926;28;20093;-77
2022/06/15 09:42:18;;;;;;;5.68;1.67;;;21.50;78.70;;;;;;5108452;28;20558;-76
2022/06/15 09:45:25;;;;;;;4.55;1.67;;;21.50;78.60;;;;;;5090681;28;20123;-76
2022/06/15 09:48:12;;;;;;;3.78;1.73;;;21.50;73.50;;;;;;5094089;28;20043;-75
2022/06/15 09:51:03;;;;;;;5.00;1.92;;;21.50;76.00;;;;;;5089073;28;20075;-76
2022/06/15 09:53:50;;;;;;;5.32;1.73;;;21.60;75.10;;;;;;5074169;28;20043;-74
2022/06/15 09:56:19;;;;;;;6.68;2.03;;;21.60;79.50;;;;;;5083033;28;20055;-74
2022/06/15 09:58:47;;;;;;;4.20;1.70;;;21.60;71.20;;;;;;5093886;28;20067;-78
2022/06/15 10:01:14;;;;;;;4.78;1.75;;;21.70;74.10;;;;;;5085853;28;20127;-80
2022/06/15 10:03:46;;;;;;;5.43;1.60;;;21.70;71.50;;;;;;5076968;28;20051;-81
2022/06/15 10:06:32;;;;;;;4.45;1.65;;;21.70;67.50;;;;;;5102135;28;20119;-82
2022/06/15 10:09:02;;;;;;;6.03;1.75;;;21.70;69.50;;;;;;5085656;28;20052;-79
2022/06/15 10:11:39;;;;;;;4.40;1.80;;;21.70;72.00;;;;;;5097271;28;20098;-75
2022/06/15 10:14:41;;;;;;;3.20;1.40;;;21.80;72.20;;;;;;5083751;28;20499;-73
2022/06/15 10:17:24;;;;;;;6.18;1.90;;;21.90;66.00;;;;;;5002663;28;20049;-74
2022/06/15 10:19:53;;;;;;;3.53;1.75;;;21.80;62.30;;;;;;5081449;28;20075;-73
2022/06/15 10:22:30;;;;;;;3.90;1.70;;;21.80;66.40;;;;;;5101093;28;20044;-73
2022/06/15 10:24:58;;;;;;;4.05;1.88;;;21.80;60.30;;;;;;5078662;28;20407;-73
2022/06/15 10:27:23;;;;;;;2.78;1.52;;;21.80;69.50;;;;;;5082012;28;20046;-78
2022/06/15 10:29:58;;;;;;;4.50;1.80;;;21.90;71.40;;;;;;5089123;28;20047;-76
2022/06/15 10:32:23;;;;;;;4.35;1.92;;;22.10;65.70;;;;;;5075997;28;20048;-75
2022/06/15 10:35:05;;;;;;;3.53;1.73;;;22.20;66.00;;;;;;5078406;28;20411;-80
2022/06/15 10:37:52;;;;;;;2.65;1.60;;;22.30;63.50;;;;;;5076762;28;20040;-75
2022/06/15 10:40:38;;;;;;;4.72;1.55;;;22.30;69.40;;;;;;5082014;28;20036;-75
2022/06/15 10:43:18;;;;;;;5.88;2.10;;;22.40;67.30;;;;;;5099622;28;20053;-75
2022/06/15 10:45:52;;;;;;;5.13;1.88;;;22.50;64.10;;;;;;5095363;28;20051;-76
2022/06/15 10:48:35;;;;;;;2.38;1.50;;;22.50;62.90;;;;;;5084996;28;20060;-78
2022/06/15 10:51:06;;;;;;;6.20;1.92;;;22.60;62.20;;;;;;5081293;28;20126;-75
2022/06/15 10:54:12;;;;;;;3.60;1.73;;;22.70;63.60;;;;;;5084681;28;20107;-75
2022/06/15 11:02:42;;;;;;;3.20;1.48;;;22.80;65.90;;;;;;5089590;28;20558;-78
2022/06/15 11:05:24;;;;;;;5.05;1.70;;;22.90;59.60;;;;;;5107159;28;20043;-75
2022/06/15 11:08:04;;;;;;;3.83;1.80;;;22.90;56.80;;;;;;5088063;28;20561;-76
2022/06/15 11:10:32;;;;;;;4.13;1.98;;;22.90;55.20;;;;;;5078905;28;20112;-75
2022/06/15 11:12:59;;;;;;;4.78;2.00;;;22.90;56.90;;;;;;5097186;28;20494;-76
2022/06/15 11:18:37;;;;;;;;;;;22.90;55.60;;;;;;5086797;28;20052;-80
2022/06/15 11:21:22;;;;;;;3.20;1.60;;;22.90;63.00;;;;;;5078223;28;20026;-77
2022/06/15 11:24:19;;;;;;;3.67;1.70;;;23.00;56.60;;;;;;5103576;28;20074;-80
2022/06/15 11:27:03;;;;;;;3.63;1.63;;;23.10;57.40;;;;;;5099635;28;20036;-76
2022/06/15 11:29:43;;;;;;;7.75;1.85;;;23.00;58.50;;;;;;5104784;28;20050;-78
2022/06/15 11:32:37;;;;;;;2.92;1.48;;;23.10;58.80;;;;;;5074783;28;20056;-76
2022/06/15 11:35:11;;;;;;;4.43;1.80;;;23.10;59.80;;;;;;5077412;28;20487;-77
2022/06/15 11:37:59;;;;;;;3.45;1.70;;;23.20;58.10;;;;;;5082552;28;20048;-76
2022/06/15 11:40:49;;;;;;;3.90;1.70;;;23.30;54.80;;;;;;5075356;28;20205;-78
2022/06/15 11:43:22;;;;;;;3.80;1.90;;;23.40;54.30;;;;;;5084218;28;20105;-79
2022/06/15 11:46:09;;;;;;;5.03;1.60;;;23.40;52.90;;;;;;5085413;28;20071;-79
2022/06/15 11:49:06;;;;;;;4.85;1.88;;;23.40;53.80;;;;;;5077824;28;20132;-76
2022/06/15 11:51:57;;;;;;;6.68;1.77;;;23.50;53.10;;;;;;5073144;28;20136;-77
2022/06/15 11:54:48;;;;;;;4.85;1.83;;;23.60;56.30;;;;;;5069140;28;20051;-74
2022/06/15 11:57:39;;;;;;;4.32;1.60;;;23.70;55.60;;;;;;5080548;28;20159;-72
2022/06/15 12:00:26;;;;;;;4.80;2.15;;;23.80;53.60;;;;;;5082070;28;20127;-75
2022/06/15 12:03:25;;;;;;;5.10;1.80;;;23.70;53.60;;;;;;5083316;28;20101;-76
2022/06/15 12:05:52;;;;;;;3.40;2.00;;;23.70;58.10;;;;;;5084536;28;20055;-73
2022/06/15 12:08:38;;;;;;;5.05;1.63;;;23.80;55.30;;;;;;5072531;28;20033;-73
2022/06/15 12:14:49;;;;;;;5.40;1.80;;;24.00;58.40;;;;;;5067578;28;20045;-73
2022/06/15 12:17:34;;;;;;;3.42;1.88;;;24.10;56.60;;;;;;5069766;28;20403;-73
2022/06/15 12:20:07;;;;;;;4.18;1.70;;;24.20;57.60;;;;;;5069223;28;20044;-73
2022/06/15 12:22:59;;;;;;;5.07;2.00;;;24.20;56.00;;;;;;5079775;28;20089;-73
2022/06/15 12:25:41;;;;;;;6.15;1.98;;;24.30;53.80;;;;;;5088174;28;20044;-73
2022/06/15 12:28:14;;;;;;;3.63;1.88;;;24.20;53.00;;;;;;5083665;28;20055;-73
2022/06/15 12:30:46;;;;;;;6.50;2.00;;;24.20;56.80;;;;;;5095824;28;20056;-73
2022/06/15 12:33:28;;;;;;;3.67;2.10;;;24.20;54.90;;;;;;5109661;28;20885;-73
2022/06/15 12:36:24;;;;;;;6.03;1.77;;;24.30;53.60;;;;;;5109292;28;20051;-72
2022/06/15 12:39:16;;;;;;;10.27;2.30;;;24.30;56.80;;;;;;5084999;28;20074;-73
2022/06/15 12:44:40;;;;;;;5.10;1.90;;;24.30;53.90;;;;;;5090684;28;20047;-73
2022/06/15 12:47:11;;;;;;;3.30;1.80;;;24.40;56.50;;;;;;5109517;28;20380;-73
2022/06/15 12:49:55;;;;;;;5.07;1.98;;;24.60;54.60;;;;;;5087982;28;20044;-72
2022/06/15 12:52:25;;;;;;;4.72;2.00;;;24.60;54.30;;;;;;5089169;28;20044;-73
2022/06/15 12:55:23;;;;;;;2.90;1.70;;;24.60;53.80;;;;;;5089191;28;20101;-73
2022/06/15 12:58:25;;;;;;;4.97;1.88;;;24.60;52.10;;;;;;5074145;28;20105;-73
2022/06/15 13:01:24;;;;;;;4.85;2.15;;;24.60;55.50;;;;;;5108519;28;20048;-73
2022/06/15 13:04:14;;;;;;;5.05;2.30;;;24.70;54.50;;;;;;5003983;28;20112;-73
2022/06/15 13:06:42;;;;;;;4.72;2.10;;;24.80;54.40;;;;;;5109194;28;20442;-73
2022/06/15 13:09:20;;;;;;;5.22;1.83;;;24.90;52.60;;;;;;5089899;28;20610;-73
2022/06/15 13:12:10;;;;;;;3.90;1.85;;;24.90;52.70;;;;;;5107677;28;20048;-73
2022/06/15 13:14:56;;;;;;;3.38;1.88;;;25.00;52.20;;;;;;5078475;28;20054;-73
2022/06/15 13:17:29;;;;;;;4.85;1.83;;;25.10;51.90;;;;;;5108110;28;20039;-73
2022/06/15 13:20:06;;;;;;;5.95;1.70;;;25.20;53.20;;;;;;5103365;28;20055;-77
2022/06/15 13:22:38;;;;;;;5.72;2.05;;;25.30;51.10;;;;;;5080109;28;20043;-78
2022/06/15 13:25:11;;;;;;;3.83;1.80;;;25.30;51.70;;;;;;5076908;28;20402;-77
2022/06/15 13:27:41;;;;;;;4.95;2.28;;;25.20;52.40;;;;;;5073287;28;20044;-77
2022/06/15 13:30:26;;;;;;;5.13;1.90;;;25.20;50.10;;;;;;5101150;28;20043;-76
2022/06/15 13:32:54;;;;;;;4.65;2.00;;;25.20;50.90;;;;;;5082536;28;20051;-78
2022/06/15 13:35:23;;;;;;;3.90;1.75;;;25.20;51.10;;;;;;5080053;28;20051;-80